sensor_id;sensor_type;location;lat;lon;timestamp;pressure;altitude;pressure_sealevel;temperature;humidity
21520;BME280;10921;53.614;9.882;2023-02-18T00:00:26;101424.56;;;8.73;74.78
21520;BME280;10921;53.614;9.882;2023-02-18T00:02:53;101431.13;;;8.80;74.71
21520;BME280;10921;53.614;9.882;2023-02-18T00:05:21;101432.94;;;8.80;74.94
21520;BME280;10921;53.614;9.882;2023-02-18T00:07:48;101437.19;;;8.82;74.93
21520;BME280;10921;53.614;9.882;2023-02-18T00:10:15;101391.38;;;8.55;74.57
21520;BME280;10921;53.614;9.882;2023-02-18T00:12:41;101432.59;;;8.85;74.55
21520;BME280;10921;53.614;9.882;2023-02-18T00:15:08;101428.47;;;8.92;74.49
21520;BME280;10921;53.614;9.882;2023-02-18T00:17:36;101431.88;;;8.94;74.45
21520;BME280;10921;53.614;9.882;2023-02-18T00:20:04;101425.47;;;8.96;74.44
21520;BME280;10921;53.614;9.882;2023-02-18T00:22:31;101437.72;;;8.99;74.08
21520;BME280;10921;53.614;9.882;2023-02-18T00:24:57;101418.44;;;8.84;74.23
21520;BME280;10921;53.614;9.882;2023-02-18T00:27:24;101429.72;;;8.99;74.09
21520;BME280;10921;53.614;9.882;2023-02-18T00:29:50;101434.03;;;8.89;74.13
21520;BME280;10921;53.614;9.882;2023-02-18T00:32:16;101440.81;;;8.93;73.91
21520;BME280;10921;53.614;9.882;2023-02-18T00:34:43;101439.25;;;8.90;73.68
21520;BME280;10921;53.614;9.882;2023-02-18T00:37:09;101440.22;;;8.89;73.85
21520;BME280;10921;53.614;9.882;2023-02-18T00:39:36;101442.97;;;8.88;73.87
21520;BME280;10921;53.614;9.882;2023-02-18T00:42:02;101453.75;;;8.86;73.97
21520;BME280;10921;53.614;9.882;2023-02-18T00:44:29;101426.84;;;8.67;74.13
21520;BME280;10921;53.614;9.882;2023-02-18T00:46:55;101455.91;;;8.81;74.24
21520;BME280;10921;53.614;9.882;2023-02-18T00:49:22;101444.03;;;8.74;74.17
21520;BME280;10921;53.614;9.882;2023-02-18T00:51:48;101449.00;;;8.78;73.95
21520;BME280;10921;53.614;9.882;2023-02-18T00:54:15;101450.81;;;8.78;74.30
21520;BME280;10921;53.614;9.882;2023-02-18T00:56:42;101458.91;;;8.76;74.26
21520;BME280;10921;53.614;9.882;2023-02-18T00:59:08;101458.91;;;8.76;74.32
21520;BME280;10921;53.614;9.882;2023-02-18T01:01:34;101457.44;;;8.72;74.31
21520;BME280;10921;53.614;9.882;2023-02-18T01:04:01;101438.34;;;8.67;74.61
21520;BME280;10921;53.614;9.882;2023-02-18T01:06:28;101447.28;;;8.66;74.59
21520;BME280;10921;53.614;9.882;2023-02-18T01:08:54;101454.56;;;8.75;74.51
21520;BME280;10921;53.614;9.882;2023-02-18T01:11:21;101461.47;;;8.78;74.83
21520;BME280;10921;53.614;9.882;2023-02-18T01:13:48;101451.16;;;8.73;74.76
21520;BME280;10921;53.614;9.882;2023-02-18T01:16:15;101406.31;;;8.45;74.76
21520;BME280;10921;53.614;9.882;2023-02-18T01:18:42;101421.13;;;8.60;74.41
21520;BME280;10921;53.614;9.882;2023-02-18T01:21:09;101453.72;;;8.75;74.72
21520;BME280;10921;53.614;9.882;2023-02-18T01:23:40;101456.38;;;8.75;75.36
21520;BME280;10921;53.614;9.882;2023-02-18T01:26:06;101445.34;;;8.68;75.12
21520;BME280;10921;53.614;9.882;2023-02-18T01:28:34;101453.72;;;8.75;75.04
21520;BME280;10921;53.614;9.882;2023-02-18T01:31:06;101453.72;;;8.75;75.41
21520;BME280;10921;53.614;9.882;2023-02-18T01:33:33;101459.25;;;8.72;75.45
21520;BME280;10921;53.614;9.882;2023-02-18T01:36:00;101423.28;;;8.55;75.38
21520;BME280;10921;53.614;9.882;2023-02-18T01:38:27;101459.88;;;8.75;75.20
21520;BME280;10921;53.614;9.882;2023-02-18T01:40:53;101448.75;;;8.70;74.86
21520;BME280;10921;53.614;9.882;2023-02-18T01:43:20;101433.19;;;8.53;75.06
21520;BME280;10921;53.614;9.882;2023-02-18T01:46:05;101460.84;;;8.74;75.29
21520;BME280;10921;53.614;9.882;2023-02-18T01:48:46;101454.06;;;8.70;75.40
21520;BME280;10921;53.614;9.882;2023-02-18T01:51:18;101451.97;;;8.63;75.49
21520;BME280;10921;53.614;9.882;2023-02-18T01:56:20;101446.75;;;8.61;75.97
21520;BME280;10921;53.614;9.882;2023-02-18T01:58:48;101414.75;;;8.39;75.60
21520;BME280;10921;53.614;9.882;2023-02-18T02:01:16;101445.38;;;8.56;76.20
21520;BME280;10921;53.614;9.882;2023-02-18T02:03:42;101414.13;;;8.35;76.07
21520;BME280;10921;53.614;9.882;2023-02-18T02:06:18;101440.22;;;8.54;76.91
21520;BME280;10921;53.614;9.882;2023-02-18T02:08:46;101426.72;;;8.44;76.28
21520;BME280;10921;53.614;9.882;2023-02-18T02:11:33;101433.09;;;8.55;76.62
21520;BME280;10921;53.614;9.882;2023-02-18T02:14:21;101445.06;;;8.60;76.48
21520;BME280;10921;53.614;9.882;2023-02-18T02:17:08;101437.06;;;8.60;76.89
21520;BME280;10921;53.614;9.882;2023-02-18T02:44:34;101419.03;;;8.53;76.21
21520;BME280;10921;53.614;9.882;2023-02-18T02:47:12;101413.84;;;8.51;75.92
21520;BME280;10921;53.614;9.882;2023-02-18T02:52:31;101422.31;;;8.56;76.11
21520;BME280;10921;53.614;9.882;2023-02-18T02:54:58;101416.28;;;8.54;75.89
21520;BME280;10921;53.614;9.882;2023-02-18T02:59:54;101414.31;;;8.56;75.68
21520;BME280;10921;53.614;9.882;2023-02-18T03:13:53;101406.41;;;8.67;76.17
21520;BME280;10921;53.614;9.882;2023-02-18T03:22:28;101402.78;;;8.68;75.96
21520;BME280;10921;53.614;9.882;2023-02-18T03:24:37;101388.34;;;8.60;75.90
21520;BME280;10921;53.614;9.882;2023-02-18T03:27:09;101419.13;;;8.75;75.73
21520;BME280;10921;53.614;9.882;2023-02-18T03:29:38;101398.91;;;8.72;75.65
21520;BME280;10921;53.614;9.882;2023-02-18T03:32:07;101402.03;;;8.66;75.61
21520;BME280;10921;53.614;9.882;2023-02-18T03:34:43;101364.50;;;8.47;75.42
21520;BME280;10921;53.614;9.882;2023-02-18T03:37:12;101386.66;;;8.59;75.46
21520;BME280;10921;53.614;9.882;2023-02-18T03:39:42;101408.03;;;8.81;75.45
21520;BME280;10921;53.614;9.882;2023-02-18T03:42:09;101416.13;;;8.79;75.55
21520;BME280;10921;53.614;9.882;2023-02-18T03:44:36;101361.94;;;8.45;75.65
21520;BME280;10921;53.614;9.882;2023-02-18T03:47:03;101344.25;;;8.33;74.90
21520;BME280;10921;53.614;9.882;2023-02-18T03:49:29;101409.94;;;8.79;75.05
21520;BME280;10921;53.614;9.882;2023-02-18T03:51:55;101405.47;;;8.79;74.65
21520;BME280;10921;53.614;9.882;2023-02-18T03:54:22;101393.88;;;8.80;74.47
21520;BME280;10921;53.614;9.882;2023-02-18T03:56:48;101409.72;;;8.82;74.33
21520;BME280;10921;53.614;9.882;2023-02-18T03:59:15;101405.03;;;8.86;74.35
21520;BME280;10921;53.614;9.882;2023-02-18T04:01:41;101398.59;;;8.88;74.24
21520;BME280;10921;53.614;9.882;2023-02-18T04:04:08;101403.06;;;8.88;74.38
21520;BME280;10921;53.614;9.882;2023-02-18T04:06:35;101405.59;;;8.89;74.12
21520;BME280;10921;53.614;9.882;2023-02-18T04:09:02;101400.06;;;8.92;74.51
21520;BME280;10921;53.614;9.882;2023-02-18T04:11:37;101394.72;;;8.92;75.02
21520;BME280;10921;53.614;9.882;2023-02-18T04:14:05;101395.59;;;8.93;75.07
21520;BME280;10921;53.614;9.882;2023-02-18T04:16:32;101380.91;;;8.87;75.26
21520;BME280;10921;53.614;9.882;2023-02-18T04:18:59;101377.28;;;8.88;75.64
21520;BME280;10921;53.614;9.882;2023-02-18T04:21:25;101375.13;;;8.82;75.98
21520;BME280;10921;53.614;9.882;2023-02-18T04:23:51;101366.19;;;8.83;76.07
21520;BME280;10921;53.614;9.882;2023-02-18T04:26:18;101352.38;;;8.78;76.63
21520;BME280;10921;53.614;9.882;2023-02-18T04:28:44;101358.13;;;8.72;76.99
21520;BME280;10921;53.614;9.882;2023-02-18T04:31:11;101359.72;;;8.74;77.26
21520;BME280;10921;53.614;9.882;2023-02-18T04:33:37;101344.38;;;8.67;77.62
21520;BME280;10921;53.614;9.882;2023-02-18T04:36:04;101347.25;;;8.64;78.03
21520;BME280;10921;53.614;9.882;2023-02-18T04:38:31;101338.75;;;8.59;78.17
21520;BME280;10921;53.614;9.882;2023-02-18T04:40:58;101334.03;;;8.51;78.52
21520;BME280;10921;53.614;9.882;2023-02-18T04:43:24;101331.84;;;8.45;78.33
21520;BME280;10921;53.614;9.882;2023-02-18T04:45:51;101303.44;;;8.22;78.98
21520;BME280;10921;53.614;9.882;2023-02-18T04:48:17;101309.03;;;8.30;79.39
21520;BME280;10921;53.614;9.882;2023-02-18T04:50:44;101344.88;;;8.37;79.29
21520;BME280;10921;53.614;9.882;2023-02-18T04:53:10;101282.94;;;8.00;79.65
21520;BME280;10921;53.614;9.882;2023-02-18T04:55:37;101252.88;;;7.75;79.70
21520;BME280;10921;53.614;9.882;2023-02-18T04:58:03;101332.31;;;8.26;80.15
21520;BME280;10921;53.614;9.882;2023-02-18T05:00:30;101340.81;;;8.31;80.28
21520;BME280;10921;53.614;9.882;2023-02-18T05:02:56;101328.81;;;8.26;80.25
21520;BME280;10921;53.614;9.882;2023-02-18T05:05:22;101328.13;;;8.24;80.57
21520;BME280;10921;53.614;9.882;2023-02-18T05:07:49;101298.44;;;8.06;80.66
21520;BME280;10921;53.614;9.882;2023-02-18T05:10:16;101349.56;;;8.33;81.15
21520;BME280;10921;53.614;9.882;2023-02-18T05:12:43;101337.00;;;8.35;80.85
21520;BME280;10921;53.614;9.882;2023-02-18T05:15:09;101300.72;;;8.10;81.13
21520;BME280;10921;53.614;9.882;2023-02-18T05:17:35;101333.63;;;8.33;81.40
21520;BME280;10921;53.614;9.882;2023-02-18T05:20:03;101299.53;;;8.15;82.01
21520;BME280;10921;53.614;9.882;2023-02-18T05:22:30;101329.25;;;8.32;82.10
21520;BME280;10921;53.614;9.882;2023-02-18T05:24:56;101325.31;;;8.25;82.16
21520;BME280;10921;53.614;9.882;2023-02-18T05:27:23;101312.59;;;8.18;82.85
21520;BME280;10921;53.614;9.882;2023-02-18T05:29:49;101322.44;;;8.28;82.56
21520;BME280;10921;53.614;9.882;2023-02-18T05:32:16;101319.41;;;8.22;83.03
21520;BME280;10921;53.614;9.882;2023-02-18T05:34:42;101295.19;;;8.13;83.32
21520;BME280;10921;53.614;9.882;2023-02-18T05:37:09;101318.34;;;8.24;83.92
21520;BME280;10921;53.614;9.882;2023-02-18T05:39:35;101304.97;;;8.13;84.65
21520;BME280;10921;53.614;9.882;2023-02-18T05:42:02;101277.28;;;8.04;84.23
21520;BME280;10921;53.614;9.882;2023-02-18T05:44:29;101280.31;;;8.11;84.54
21520;BME280;10921;53.614;9.882;2023-02-18T05:47:16;101299.09;;;8.21;85.70
21520;BME280;10921;53.614;9.882;2023-02-18T05:49:42;101257.91;;;7.91;85.19
21520;BME280;10921;53.614;9.882;2023-02-18T05:52:10;101298.81;;;8.12;85.86
21520;BME280;10921;53.614;9.882;2023-02-18T05:54:37;101191.19;;;7.48;85.67
21520;BME280;10921;53.614;9.882;2023-02-18T05:57:04;101286.44;;;8.00;85.99
21520;BME280;10921;53.614;9.882;2023-02-18T05:59:30;101298.31;;;8.07;86.41
21520;BME280;10921;53.614;9.882;2023-02-18T06:01:57;101294.81;;;8.07;86.80
21520;BME280;10921;53.614;9.882;2023-02-18T06:04:23;101287.81;;;8.06;86.80
21520;BME280;10921;53.614;9.882;2023-02-18T06:06:50;101281.00;;;8.02;87.38
21520;BME280;10921;53.614;9.882;2023-02-18T06:09:17;101257.50;;;7.85;87.18
21520;BME280;10921;53.614;9.882;2023-02-18T06:11:43;101288.97;;;8.02;87.06
21520;BME280;10921;53.614;9.882;2023-02-18T06:14:10;101275.81;;;8.00;87.39
21520;BME280;10921;53.614;9.882;2023-02-18T06:16:36;101266.13;;;7.99;87.00
21520;BME280;10921;53.614;9.882;2023-02-18T06:19:04;101198.97;;;7.62;86.95
21520;BME280;10921;53.614;9.882;2023-02-18T06:21:30;101236.16;;;7.97;87.21
21520;BME280;10921;53.614;9.882;2023-02-18T06:23:57;101223.13;;;7.94;87.24
21520;BME280;10921;53.614;9.882;2023-02-18T06:26:23;101225.06;;;7.92;87.25
21520;BME280;10921;53.614;9.882;2023-02-18T06:28:50;101232.19;;;7.92;87.12
21520;BME280;10921;53.614;9.882;2023-02-18T06:31:17;101233.25;;;7.89;87.55
21520;BME280;10921;53.614;9.882;2023-02-18T06:33:43;101230.81;;;7.86;87.67
21520;BME280;10921;53.614;9.882;2023-02-18T06:36:10;101190.88;;;7.64;88.10
21520;BME280;10921;53.614;9.882;2023-02-18T06:38:43;101226.47;;;7.85;88.81
21520;BME280;10921;53.614;9.882;2023-02-18T06:41:11;101217.50;;;7.75;88.38
21520;BME280;10921;53.614;9.882;2023-02-18T06:43:38;101215.09;;;7.83;88.20
21520;BME280;10921;53.614;9.882;2023-02-18T06:46:05;101203.72;;;7.81;88.25
21520;BME280;10921;53.614;9.882;2023-02-18T06:48:32;101178.09;;;7.69;88.43
21520;BME280;10921;53.614;9.882;2023-02-18T06:50:59;101201.69;;;7.85;88.53
21520;BME280;10921;53.614;9.882;2023-02-18T06:53:25;101189.25;;;7.85;88.68
21520;BME280;10921;53.614;9.882;2023-02-18T06:55:52;101186.00;;;7.82;88.69
21520;BME280;10921;53.614;9.882;2023-02-18T06:58:18;101178.75;;;7.84;88.95
21520;BME280;10921;53.614;9.882;2023-02-18T07:00:45;101168.75;;;7.87;88.78
21520;BME280;10921;53.614;9.882;2023-02-18T07:03:12;101157.03;;;7.90;88.61
21520;BME280;10921;53.614;9.882;2023-02-18T07:05:40;101143.75;;;7.90;89.02
21520;BME280;10921;53.614;9.882;2023-02-18T07:08:06;101155.13;;;7.92;88.72
21520;BME280;10921;53.614;9.882;2023-02-18T07:10:33;101148.22;;;7.89;89.03
21520;BME280;10921;53.614;9.882;2023-02-18T07:12:59;101142.91;;;7.89;89.12
21520;BME280;10921;53.614;9.882;2023-02-18T07:15:26;101159.09;;;7.97;88.95
21520;BME280;10921;53.614;9.882;2023-02-18T07:17:53;101162.38;;;8.01;89.30
21520;BME280;10921;53.614;9.882;2023-02-18T07:20:20;101156.00;;;8.03;89.02
21520;BME280;10921;53.614;9.882;2023-02-18T07:22:47;101154.19;;;8.04;89.45
21520;BME280;10921;53.614;9.882;2023-02-18T07:25:14;101127.72;;;7.91;89.29
21520;BME280;10921;53.614;9.882;2023-02-18T07:27:40;101123.38;;;8.01;89.28
21520;BME280;10921;53.614;9.882;2023-02-18T07:30:08;101125.44;;;8.09;89.16
21520;BME280;10921;53.614;9.882;2023-02-18T07:32:34;101103.81;;;8.02;89.16
21520;BME280;10921;53.614;9.882;2023-02-18T07:35:03;101093.06;;;8.04;89.09
21520;BME280;10921;53.614;9.882;2023-02-18T07:37:30;101090.75;;;7.99;89.04
21520;BME280;10921;53.614;9.882;2023-02-18T07:39:57;101096.91;;;8.11;89.26
21520;BME280;10921;53.614;9.882;2023-02-18T07:42:23;101081.09;;;8.09;89.42
21520;BME280;10921;53.614;9.882;2023-02-18T07:44:50;101078.81;;;8.16;89.04
21520;BME280;10921;53.614;9.882;2023-02-18T07:47:17;101071.56;;;8.18;89.44
21520;BME280;10921;53.614;9.882;2023-02-18T07:49:45;101053.78;;;8.19;89.31
21520;BME280;10921;53.614;9.882;2023-02-18T07:52:13;101053.69;;;8.20;89.24
21520;BME280;10921;53.614;9.882;2023-02-18T07:54:40;101044.75;;;8.21;89.48
21520;BME280;10921;53.614;9.882;2023-02-18T07:57:06;101030.09;;;8.16;89.28
21520;BME280;10921;53.614;9.882;2023-02-18T07:59:33;101005.56;;;8.12;89.64
21520;BME280;10921;53.614;9.882;2023-02-18T08:01:59;100988.31;;;8.06;89.76
21520;BME280;10921;53.614;9.882;2023-02-18T08:04:26;101011.38;;;8.28;89.65
21520;BME280;10921;53.614;9.882;2023-02-18T08:06:52;101019.34;;;8.28;90.02
21520;BME280;10921;53.614;9.882;2023-02-18T08:09:19;101013.78;;;8.31;89.79
21520;BME280;10921;53.614;9.882;2023-02-18T08:11:45;101009.22;;;8.33;89.82
21520;BME280;10921;53.614;9.882;2023-02-18T08:14:12;101010.91;;;8.34;89.98
21520;BME280;10921;53.614;9.882;2023-02-18T08:16:38;101005.34;;;8.37;89.74
21520;BME280;10921;53.614;9.882;2023-02-18T08:19:05;101009.59;;;8.40;89.98
21520;BME280;10921;53.614;9.882;2023-02-18T08:21:31;101006.22;;;8.38;89.92
21520;BME280;10921;53.614;9.882;2023-02-18T08:23:58;101006.78;;;8.41;89.91
21520;BME280;10921;53.614;9.882;2023-02-18T08:26:25;101007.28;;;8.35;89.87
21520;BME280;10921;53.614;9.882;2023-02-18T08:28:52;101001.97;;;8.35;89.51
21520;BME280;10921;53.614;9.882;2023-02-18T08:31:24;101001.09;;;8.46;89.91
21520;BME280;10921;53.614;9.882;2023-02-18T08:33:53;100982.53;;;8.35;89.50
21520;BME280;10921;53.614;9.882;2023-02-18T08:36:20;100977.53;;;8.41;89.73
21520;BME280;10921;53.614;9.882;2023-02-18T08:38:47;100985.88;;;8.48;89.33
21520;BME280;10921;53.614;9.882;2023-02-18T08:41:14;100987.81;;;8.46;89.57
21520;BME280;10921;53.614;9.882;2023-02-18T08:43:41;100976.81;;;8.51;89.54
21520;BME280;10921;53.614;9.882;2023-02-18T08:46:08;100965.31;;;8.50;89.76
21520;BME280;10921;53.614;9.882;2023-02-18T08:48:54;100954.56;;;8.52;89.68
21520;BME280;10921;53.614;9.882;2023-02-18T08:51:21;100944.38;;;8.57;89.81
21520;BME280;10921;53.614;9.882;2023-02-18T08:53:48;100878.34;;;8.19;89.86
21520;BME280;10921;53.614;9.882;2023-02-18T08:56:15;100935.28;;;8.59;89.74
21520;BME280;10921;53.614;9.882;2023-02-18T08:58:43;100917.09;;;8.55;89.83
21520;BME280;10921;53.614;9.882;2023-02-18T09:01:11;100933.97;;;8.65;90.09
21520;BME280;10921;53.614;9.882;2023-02-18T09:03:37;100913.78;;;8.62;89.47
21520;BME280;10921;53.614;9.882;2023-02-18T09:06:04;100886.06;;;8.65;89.61
21520;BME280;10921;53.614;9.882;2023-02-18T09:08:31;100891.88;;;8.70;89.90
21520;BME280;10921;53.614;9.882;2023-02-18T09:10:59;100876.75;;;8.70;90.06
21520;BME280;10921;53.614;9.882;2023-02-18T09:13:27;100868.78;;;8.70;90.24
21520;BME280;10921;53.614;9.882;2023-02-18T09:16:01;100869.94;;;8.77;90.89
21520;BME280;10921;53.614;9.882;2023-02-18T09:18:30;100833.72;;;8.65;90.42
21520;BME280;10921;53.614;9.882;2023-02-18T09:20:58;100863.50;;;8.80;90.66
21520;BME280;10921;53.614;9.882;2023-02-18T09:23:27;100869.53;;;8.82;90.64
21520;BME280;10921;53.614;9.882;2023-02-18T09:25:54;100848.63;;;8.77;90.48
21520;BME280;10921;53.614;9.882;2023-02-18T09:28:21;100821.25;;;8.66;90.40
21520;BME280;10921;53.614;9.882;2023-02-18T09:30:47;100844.63;;;8.83;90.14
21520;BME280;10921;53.614;9.882;2023-02-18T09:33:15;100796.13;;;8.59;90.08
21520;BME280;10921;53.614;9.882;2023-02-18T09:35:43;100837.78;;;8.90;90.32
21520;BME280;10921;53.614;9.882;2023-02-18T09:38:13;100829.94;;;8.89;90.40
21520;BME280;10921;53.614;9.882;2023-02-18T09:40:43;100832.47;;;8.90;91.30
21520;BME280;10921;53.614;9.882;2023-02-18T09:43:21;100830.16;;;8.97;92.09
21520;BME280;10921;53.614;9.882;2023-02-18T09:45:50;100816.50;;;8.90;91.49
21520;BME280;10921;53.614;9.882;2023-02-18T09:48:20;100822.59;;;9.02;91.32
21520;BME280;10921;53.614;9.882;2023-02-18T09:50:52;100805.66;;;9.03;91.42
21520;BME280;10921;53.614;9.882;2023-02-18T09:53:20;100809.03;;;9.05;91.31
21520;BME280;10921;53.614;9.882;2023-02-18T09:55:48;100793.06;;;9.05;91.26
21520;BME280;10921;53.614;9.882;2023-02-18T09:58:19;100786.50;;;9.09;91.78
21520;BME280;10921;53.614;9.882;2023-02-18T10:00:50;100747.19;;;8.92;91.98
21520;BME280;10921;53.614;9.882;2023-02-18T10:03:19;100742.66;;;9.13;91.88
21520;BME280;10921;53.614;9.882;2023-02-18T10:05:59;100783.56;;;9.12;93.00
21520;BME280;10921;53.614;9.882;2023-02-18T10:08:32;100768.13;;;9.06;91.87
21520;BME280;10921;53.614;9.882;2023-02-18T10:11:00;100778.97;;;9.14;91.86
21520;BME280;10921;53.614;9.882;2023-02-18T10:13:29;100771.81;;;9.14;92.31
21520;BME280;10921;53.614;9.882;2023-02-18T10:15:56;100762.00;;;9.15;92.15
21520;BME280;10921;53.614;9.882;2023-02-18T10:18:40;100754.44;;;9.20;93.35
21520;BME280;10921;53.614;9.882;2023-02-18T10:21:16;100752.34;;;9.14;92.84
21520;BME280;10921;53.614;9.882;2023-02-18T10:23:58;100751.53;;;9.23;93.55
21520;BME280;10921;53.614;9.882;2023-02-18T10:26:25;100733.25;;;9.09;92.83
21520;BME280;10921;53.614;9.882;2023-02-18T10:28:52;100751.66;;;9.22;92.68
21520;BME280;10921;53.614;9.882;2023-02-18T10:31:32;100743.25;;;9.26;93.88
21520;BME280;10921;53.614;9.882;2023-02-18T10:34:03;100743.13;;;9.28;93.04
21520;BME280;10921;53.614;9.882;2023-02-18T10:36:45;100751.84;;;9.30;93.84
21520;BME280;10921;53.614;9.882;2023-02-18T10:42:40;100722.28;;;9.42;95.39
21520;BME280;10921;53.614;9.882;2023-02-18T10:50:39;100703.81;;;9.60;94.89
21520;BME280;10921;53.614;9.882;2023-02-18T10:53:42;100691.47;;;9.69;96.55
21520;BME280;10921;53.614;9.882;2023-02-18T10:56:36;100710.41;;;9.85;96.27
21520;BME280;10921;53.614;9.882;2023-02-18T10:59:09;100667.94;;;9.74;94.90
21520;BME280;10921;53.614;9.882;2023-02-18T11:01:37;100649.69;;;9.69;93.79
21520;BME280;10921;53.614;9.882;2023-02-18T11:04:15;100681.81;;;9.87;93.98
21520;BME280;10921;53.614;9.882;2023-02-18T11:06:48;100681.22;;;9.93;92.84
21520;BME280;10921;53.614;9.882;2023-02-18T11:12:18;100669.19;;;9.89;94.42
21520;BME280;10921;53.614;9.882;2023-02-18T11:15:34;100666.53;;;9.89;94.12
21520;BME280;10921;53.614;9.882;2023-02-18T11:17:35;100649.97;;;9.85;94.08
21520;BME280;10921;53.614;9.882;2023-02-18T11:22:49;100633.94;;;10.05;94.67
21520;BME280;10921;53.614;9.882;2023-02-18T11:25:20;100634.06;;;10.13;94.97
21520;BME280;10921;53.614;9.882;2023-02-18T11:27:51;100634.09;;;10.23;95.49
21520;BME280;10921;53.614;9.882;2023-02-18T11:32:51;100627.97;;;10.40;95.36
21520;BME280;10921;53.614;9.882;2023-02-18T11:35:21;100617.88;;;10.43;95.54
21520;BME280;10921;53.614;9.882;2023-02-18T11:37:49;100618.13;;;10.50;95.65
21520;BME280;10921;53.614;9.882;2023-02-18T11:40:29;100605.50;;;10.52;97.25
21520;BME280;10921;53.614;9.882;2023-02-18T11:43:16;100610.19;;;10.68;98.36
21520;BME280;10921;53.614;9.882;2023-02-18T11:45:45;100603.56;;;10.72;98.38
21520;BME280;10921;53.614;9.882;2023-02-18T11:48:22;100601.16;;;10.78;100.00
21520;BME280;10921;53.614;9.882;2023-02-18T11:50:51;100605.91;;;10.84;100.00
21520;BME280;10921;53.614;9.882;2023-02-18T11:53:36;100553.47;;;10.66;100.00
21520;BME280;10921;53.614;9.882;2023-02-18T11:56:09;100627.09;;;11.13;100.00
21520;BME280;10921;53.614;9.882;2023-02-18T11:58:45;100648.22;;;11.24;100.00
21520;BME280;10921;53.614;9.882;2023-02-18T12:01:36;100653.78;;;11.31;100.00
21520;BME280;10921;53.614;9.882;2023-02-18T12:09:36;100638.56;;;11.41;100.00
21520;BME280;10921;53.614;9.882;2023-02-18T12:12:46;100652.06;;;11.57;100.00
21520;BME280;10921;53.614;9.882;2023-02-18T12:15:17;100658.13;;;11.59;100.00
21520;BME280;10921;53.614;9.882;2023-02-18T12:17:58;100647.41;;;11.42;100.00
21520;BME280;10921;53.614;9.882;2023-02-18T12:20:54;100640.06;;;11.61;100.00
21520;BME280;10921;53.614;9.882;2023-02-18T12:23:47;100670.00;;;11.65;100.00
21520;BME280;10921;53.614;9.882;2023-02-18T12:29:12;100666.78;;;11.61;100.00
21520;BME280;10921;53.614;9.882;2023-02-18T12:32:00;100684.00;;;11.59;100.00
21520;BME280;10921;53.614;9.882;2023-02-18T12:46:18;100686.03;;;11.47;98.85
21520;BME280;10921;53.614;9.882;2023-02-18T12:54:45;100700.47;;;11.54;99.58
21520;BME280;10921;53.614;9.882;2023-02-18T13:11:28;100702.28;;;11.36;99.35
21520;BME280;10921;53.614;9.882;2023-02-18T13:14:03;100738.97;;;11.34;99.58
21520;BME280;10921;53.614;9.882;2023-02-18T13:16:34;100714.56;;;11.29;99.13
21520;BME280;10921;53.614;9.882;2023-02-18T13:19:18;100704.25;;;11.34;100.00
21520;BME280;10921;53.614;9.882;2023-02-18T13:21:52;100738.13;;;11.34;99.53
21520;BME280;10921;53.614;9.882;2023-02-18T13:24:32;100733.78;;;11.33;99.92
21520;BME280;10921;53.614;9.882;2023-02-18T13:32:26;100753.94;;;11.27;98.64
21520;BME280;10921;53.614;9.882;2023-02-18T13:40:21;100773.50;;;11.18;98.40
21520;BME280;10921;53.614;9.882;2023-02-18T13:42:52;100769.00;;;11.18;98.71
21520;BME280;10921;53.614;9.882;2023-02-18T13:45:30;100774.63;;;11.15;98.68
21520;BME280;10921;53.614;9.882;2023-02-18T13:47:58;100787.59;;;11.10;98.27
21520;BME280;10921;53.614;9.882;2023-02-18T13:53:10;100723.66;;;10.72;98.44
21520;BME280;10921;53.614;9.882;2023-02-18T13:55:41;100790.97;;;11.03;98.28
21520;BME280;10921;53.614;9.882;2023-02-18T13:58:24;100804.19;;;11.04;99.08
21520;BME280;10921;53.614;9.882;2023-02-18T14:01:00;100800.44;;;10.97;98.38
21520;BME280;10921;53.614;9.882;2023-02-18T14:06:26;100812.53;;;10.91;97.19
21520;BME280;10921;53.614;9.882;2023-02-18T14:11:48;100823.38;;;10.80;96.81
21520;BME280;10921;53.614;9.882;2023-02-18T14:14:37;100841.22;;;10.70;95.92
21520;BME280;10921;53.614;9.882;2023-02-18T14:27:35;100870.75;;;9.90;90.22
21520;BME280;10921;53.614;9.882;2023-02-18T14:30:04;100857.47;;;9.60;89.67
21520;BME280;10921;53.614;9.882;2023-02-18T14:32:32;100898.41;;;9.59;89.47
21520;BME280;10921;53.614;9.882;2023-02-18T14:43:26;100929.38;;;8.88;89.63
21520;BME280;10921;53.614;9.882;2023-02-18T14:51:30;100925.19;;;8.53;90.50
21520;BME280;10921;53.614;9.882;2023-02-18T14:54:03;100934.25;;;8.51;91.19
21520;BME280;10921;53.614;9.882;2023-02-18T14:56:36;100925.91;;;8.44;91.74
21520;BME280;10921;53.614;9.882;2023-02-18T14:59:04;100927.28;;;8.38;91.14
21520;BME280;10921;53.614;9.882;2023-02-18T15:01:33;100921.69;;;8.30;90.71
21520;BME280;10921;53.614;9.882;2023-02-18T15:04:01;100928.81;;;8.30;91.44
21520;BME280;10921;53.614;9.882;2023-02-18T15:06:31;100931.03;;;8.25;92.16
21520;BME280;10921;53.614;9.882;2023-02-18T15:08:59;100942.00;;;8.31;92.88
21520;BME280;10921;53.614;9.882;2023-02-18T15:11:38;100950.56;;;8.46;95.32
21520;BME280;10921;53.614;9.882;2023-02-18T15:14:28;100943.53;;;8.56;95.53
21520;BME280;10921;53.614;9.882;2023-02-18T15:16:56;100949.91;;;8.65;93.78
21520;BME280;10921;53.614;9.882;2023-02-18T15:19:26;100948.41;;;8.72;93.01
21520;BME280;10921;53.614;9.882;2023-02-18T15:21:55;100977.19;;;8.78;91.67
21520;BME280;10921;53.614;9.882;2023-02-18T15:26:54;100988.44;;;8.81;90.82
21520;BME280;10921;53.614;9.882;2023-02-18T15:29:24;100995.03;;;8.87;90.20
21520;BME280;10921;53.614;9.882;2023-02-18T15:31:51;100977.50;;;8.64;88.68
21520;BME280;10921;53.614;9.882;2023-02-18T15:34:37;100987.63;;;8.70;89.95
21520;BME280;10921;53.614;9.882;2023-02-18T15:37:06;101024.47;;;8.74;88.01
21520;BME280;10921;53.614;9.882;2023-02-18T15:39:34;101025.84;;;8.69;87.91
21520;BME280;10921;53.614;9.882;2023-02-18T15:44:51;101044.34;;;8.59;89.04
21520;BME280;10921;53.614;9.882;2023-02-18T15:47:19;101035.66;;;8.46;88.35